RYR44JG LPPR-LEZL
Flight info
| Callsign | RYR44JG |
|---|---|
| Flight time | 1h 3m |
| Altitude | 37000 |
| Route | MANIK DCT MINTA DCT OSLEP |
| Aircraft | B738/M-SDE3FGILRWY/SB1 |
Departure
| Time | 2026-04-17 10:44 |
|---|---|
| Airport | Francisco de Sá Carneiro Airport (LPPR) |
Arrival
| Time | 2026-04-17 11:47 |
|---|---|
| Airport | Seville Airport (LEZL) |
| Time | Latitude | Longitude | Altitude | Speed | Heading |
|---|---|---|---|---|---|
| 2026-04-17 10:33 | 41.23773 | -8.67297 | 244 ft | 0 kts | 49° |
| 2026-04-17 10:37 | 41.23772 | -8.67298 | 244 ft | 1 kts | 49° |
| 2026-04-17 10:37 | 41.23757 | -8.67323 | 243 ft | 4 kts | 56° |
| 2026-04-17 10:37 | 41.23744 | -8.67354 | 241 ft | 4 kts | 66° |
| 2026-04-17 10:37 | 41.23735 | -8.67387 | 240 ft | 4 kts | 79° |
| 2026-04-17 10:38 | 41.23733 | -8.67422 | 239 ft | 4 kts | 101° |
| 2026-04-17 10:38 | 41.23743 | -8.67451 | 237 ft | 4 kts | 149° |
| 2026-04-17 10:38 | 41.23750 | -8.67456 | 237 ft | 1 kts | 169° |
| 2026-04-17 10:41 | 41.23743 | -8.67455 | 237 ft | 6 kts | 169° |
| 2026-04-17 10:42 | 41.23638 | -8.67427 | 237 ft | 23 kts | 168° |
| 2026-04-17 10:42 | 41.23491 | -8.67389 | 238 ft | 17 kts | 169° |
| 2026-04-17 10:42 | 41.23378 | -8.67367 | 238 ft | 16 kts | 185° |
| 2026-04-17 10:42 | 41.23326 | -8.67476 | 236 ft | 10 kts | 258° |
| 2026-04-17 10:43 | 41.23312 | -8.67565 | 239 ft | 10 kts | 258° |
| 2026-04-17 10:43 | 41.23303 | -8.67669 | 237 ft | 16 kts | 277° |
| 2026-04-17 10:43 | 41.23439 | -8.67769 | 235 ft | 41 kts | 347° |
| 2026-04-17 10:43 | 41.23964 | -8.67906 | 219 ft | 111 kts | 348° |
| 2026-04-17 10:44 | 41.24910 | -8.68146 | 222 ft | 163 kts | 349° |
| 2026-04-17 10:44 | 41.26043 | -8.68428 | 818 ft | 168 kts | 349° |
| 2026-04-17 10:44 | 41.27218 | -8.68713 | 1501 ft | 174 kts | 351° |
| 2026-04-17 10:44 | 41.28470 | -8.68994 | 2039 ft | 192 kts | 350° |
| 2026-04-17 10:45 | 41.29869 | -8.69339 | 2369 ft | 216 kts | 350° |
| 2026-04-17 10:45 | 41.31402 | -8.69715 | 2697 ft | 232 kts | 350° |
| 2026-04-17 10:45 | 41.33008 | -8.70127 | 3263 ft | 233 kts | 348° |
| 2026-04-17 10:45 | 41.34464 | -8.70559 | 4507 ft | 206 kts | 345° |
| 2026-04-17 10:46 | 41.35919 | -8.71025 | 4972 ft | 228 kts | 345° |
| 2026-04-17 10:46 | 41.37555 | -8.71532 | 5217 ft | 255 kts | 345° |
| 2026-04-17 10:46 | 41.39272 | -8.72413 | 5552 ft | 273 kts | 324° |
| 2026-04-17 10:46 | 41.40667 | -8.74140 | 6234 ft | 276 kts | 303° |
| 2026-04-17 10:47 | 41.41488 | -8.76420 | 7015 ft | 273 kts | 280° |
| 2026-04-17 10:47 | 41.41519 | -8.78920 | 7791 ft | 271 kts | 258° |
| 2026-04-17 10:47 | 41.41109 | -8.81365 | 8537 ft | 272 kts | 246° |
| 2026-04-17 10:47 | 41.40004 | -8.83392 | 9295 ft | 273 kts | 219° |
| 2026-04-17 10:48 | 41.38347 | -8.84543 | 10069 ft | 276 kts | 196° |
| 2026-04-17 10:48 | 41.36414 | -8.84772 | 10586 ft | 291 kts | 177° |
| 2026-04-17 10:48 | 41.34326 | -8.84334 | 10755 ft | 315 kts | 171° |
| 2026-04-17 10:48 | 41.32119 | -8.83721 | 11064 ft | 331 kts | 170° |
| 2026-04-17 10:49 | 41.29840 | -8.83060 | 11656 ft | 337 kts | 170° |
| 2026-04-17 10:49 | 41.27538 | -8.82403 | 12368 ft | 340 kts | 171° |
| 2026-04-17 10:49 | 41.25215 | -8.81756 | 13095 ft | 343 kts | 171° |
| 2026-04-17 10:49 | 41.22866 | -8.81117 | 13803 ft | 347 kts | 172° |
| 2026-04-17 10:50 | 41.20485 | -8.80479 | 14452 ft | 351 kts | 172° |
| 2026-04-17 10:50 | 41.18086 | -8.79841 | 15173 ft | 353 kts | 172° |
| 2026-04-17 10:50 | 41.15677 | -8.79202 | 15936 ft | 354 kts | 172° |
| 2026-04-17 10:50 | 41.13252 | -8.78561 | 16662 ft | 356 kts | 172° |
| 2026-04-17 10:51 | 41.10806 | -8.77916 | 17368 ft | 359 kts | 172° |
| 2026-04-17 10:51 | 41.08343 | -8.77267 | 18067 ft | 362 kts | 172° |
| 2026-04-17 10:51 | 41.05865 | -8.76612 | 18726 ft | 365 kts | 171° |
| 2026-04-17 10:51 | 41.03385 | -8.75770 | 19333 ft | 369 kts | 167° |
| 2026-04-17 10:52 | 41.00921 | -8.74753 | 19930 ft | 373 kts | 165° |
| 2026-04-17 10:52 | 40.98448 | -8.73685 | 20500 ft | 376 kts | 165° |
| 2026-04-17 10:52 | 40.95956 | -8.72611 | 21087 ft | 379 kts | 165° |
| 2026-04-17 10:52 | 40.93435 | -8.71541 | 21658 ft | 381 kts | 165° |
| 2026-04-17 10:53 | 40.90899 | -8.70481 | 22186 ft | 385 kts | 166° |
| 2026-04-17 10:53 | 40.88332 | -8.69420 | 22736 ft | 388 kts | 166° |
| 2026-04-17 10:53 | 40.85752 | -8.68360 | 23316 ft | 389 kts | 166° |
| 2026-04-17 10:53 | 40.83157 | -8.67298 | 23856 ft | 392 kts | 166° |
| 2026-04-17 10:54 | 40.80541 | -8.66228 | 24292 ft | 394 kts | 166° |
| 2026-04-17 10:54 | 40.77909 | -8.65154 | 24703 ft | 398 kts | 166° |
| 2026-04-17 10:54 | 40.75254 | -8.64070 | 25105 ft | 401 kts | 166° |
| 2026-04-17 10:54 | 40.72584 | -8.62981 | 25536 ft | 403 kts | 166° |
| 2026-04-17 10:55 | 40.69899 | -8.61887 | 25960 ft | 406 kts | 166° |
| 2026-04-17 10:55 | 40.67186 | -8.60812 | 26370 ft | 408 kts | 167° |
| 2026-04-17 10:55 | 40.64451 | -8.59799 | 26760 ft | 410 kts | 168° |
| 2026-04-17 10:55 | 40.61685 | -8.58805 | 27151 ft | 413 kts | 168° |
| 2026-04-17 10:56 | 40.58908 | -8.57815 | 27538 ft | 415 kts | 168° |
| 2026-04-17 10:56 | 40.56151 | -8.56831 | 27901 ft | 418 kts | 168° |
| 2026-04-17 10:56 | 40.53338 | -8.55822 | 28271 ft | 420 kts | 168° |
| 2026-04-17 10:56 | 40.50513 | -8.54806 | 28640 ft | 422 kts | 168° |
| 2026-04-17 10:57 | 40.47633 | -8.53766 | 29006 ft | 425 kts | 168° |
| 2026-04-17 10:57 | 40.44818 | -8.52748 | 29354 ft | 427 kts | 168° |
| 2026-04-17 10:57 | 40.41942 | -8.51708 | 29697 ft | 429 kts | 168° |
| 2026-04-17 10:57 | 40.39057 | -8.50665 | 30030 ft | 431 kts | 168° |
| 2026-04-17 10:58 | 40.36155 | -8.49616 | 30331 ft | 434 kts | 168° |
| 2026-04-17 10:58 | 40.33239 | -8.48563 | 30588 ft | 436 kts | 168° |
| 2026-04-17 10:58 | 40.30313 | -8.47508 | 30870 ft | 437 kts | 168° |
| 2026-04-17 10:58 | 40.27377 | -8.46450 | 31168 ft | 438 kts | 168° |
| 2026-04-17 10:59 | 40.24444 | -8.45393 | 31548 ft | 436 kts | 168° |
| 2026-04-17 10:59 | 40.21525 | -8.44341 | 31962 ft | 434 kts | 168° |
| 2026-04-17 10:59 | 40.18615 | -8.43294 | 32344 ft | 433 kts | 168° |
| 2026-04-17 10:59 | 40.15712 | -8.42252 | 32637 ft | 433 kts | 168° |
| 2026-04-17 11:00 | 40.12806 | -8.41210 | 32911 ft | 434 kts | 168° |
| 2026-04-17 11:00 | 40.09894 | -8.40167 | 33233 ft | 434 kts | 168° |
| 2026-04-17 11:00 | 40.06993 | -8.39128 | 33623 ft | 432 kts | 168° |
| 2026-04-17 11:00 | 40.04101 | -8.38093 | 33997 ft | 430 kts | 168° |
| 2026-04-17 11:01 | 40.01226 | -8.37065 | 34289 ft | 430 kts | 168° |
| 2026-04-17 11:01 | 39.98335 | -8.36034 | 34523 ft | 430 kts | 168° |
| 2026-04-17 11:01 | 39.95445 | -8.35003 | 34779 ft | 430 kts | 168° |
| 2026-04-17 11:01 | 39.92559 | -8.33975 | 35023 ft | 430 kts | 168° |
| 2026-04-17 11:02 | 39.89674 | -8.32947 | 35258 ft | 431 kts | 168° |
| 2026-04-17 11:02 | 39.86784 | -8.31919 | 35489 ft | 431 kts | 168° |
| 2026-04-17 11:02 | 39.83891 | -8.30891 | 35740 ft | 431 kts | 168° |
| 2026-04-17 11:02 | 39.81006 | -8.29865 | 36022 ft | 430 kts | 168° |
| 2026-04-17 11:03 | 39.78117 | -8.28840 | 36271 ft | 429 kts | 168° |
| 2026-04-17 11:03 | 39.75236 | -8.27818 | 36453 ft | 430 kts | 168° |
| 2026-04-17 11:03 | 39.72348 | -8.26795 | 36644 ft | 431 kts | 167° |
| 2026-04-17 11:03 | 39.69460 | -8.25773 | 36897 ft | 430 kts | 167° |
| 2026-04-17 11:04 | 39.66572 | -8.24752 | 37132 ft | 430 kts | 167° |
| 2026-04-17 11:04 | 39.60747 | -8.22696 | 37149 ft | 436 kts | 167° |
| 2026-04-17 11:05 | 39.54903 | -8.20635 | 37135 ft | 433 kts | 167° |
| 2026-04-17 11:05 | 39.49175 | -8.18616 | 37131 ft | 427 kts | 167° |
| 2026-04-17 11:06 | 39.43431 | -8.16598 | 37141 ft | 428 kts | 167° |
| 2026-04-17 11:06 | 39.37676 | -8.14580 | 37144 ft | 429 kts | 167° |
| 2026-04-17 11:07 | 39.31906 | -8.12560 | 37139 ft | 430 kts | 167° |
| 2026-04-17 11:07 | 39.26130 | -8.10541 | 37128 ft | 431 kts | 167° |
| 2026-04-17 11:08 | 39.20341 | -8.08521 | 37135 ft | 431 kts | 167° |
| 2026-04-17 11:08 | 39.14546 | -8.06502 | 37135 ft | 432 kts | 167° |
| 2026-04-17 11:09 | 39.08735 | -8.04481 | 37135 ft | 433 kts | 167° |
| 2026-04-17 11:09 | 39.02922 | -8.02462 | 37128 ft | 433 kts | 167° |
| 2026-04-17 11:10 | 38.94196 | -7.99439 | 37131 ft | 433 kts | 167° |
| 2026-04-17 11:10 | 38.88414 | -7.97440 | 37122 ft | 433 kts | 167° |
| 2026-04-17 11:11 | 38.82596 | -7.95431 | 37111 ft | 433 kts | 167° |
| 2026-04-17 11:11 | 38.76815 | -7.93438 | 37107 ft | 427 kts | 167° |
| 2026-04-17 11:12 | 38.71164 | -7.91491 | 36785 ft | 413 kts | 167° |
| 2026-04-17 11:12 | 38.68400 | -7.90541 | 36307 ft | 411 kts | 167° |
| 2026-04-17 11:12 | 38.65642 | -7.89595 | 35799 ft | 411 kts | 167° |
| 2026-04-17 11:13 | 38.62887 | -7.88652 | 35376 ft | 408 kts | 167° |
| 2026-04-17 11:13 | 38.60157 | -7.87716 | 35001 ft | 404 kts | 167° |
| 2026-04-17 11:13 | 38.57445 | -7.86787 | 34631 ft | 401 kts | 167° |
| 2026-04-17 11:13 | 38.54763 | -7.85870 | 34264 ft | 398 kts | 167° |
| 2026-04-17 11:14 | 38.52096 | -7.84957 | 33861 ft | 395 kts | 167° |
| 2026-04-17 11:14 | 38.49454 | -7.84054 | 33445 ft | 392 kts | 167° |
| 2026-04-17 11:14 | 38.46825 | -7.83157 | 33034 ft | 390 kts | 167° |
| 2026-04-17 11:14 | 38.44214 | -7.82266 | 32616 ft | 387 kts | 167° |
| 2026-04-17 11:15 | 38.41620 | -7.81382 | 32225 ft | 384 kts | 167° |
| 2026-04-17 11:15 | 38.39044 | -7.80504 | 31832 ft | 382 kts | 167° |
| 2026-04-17 11:15 | 38.36486 | -7.79634 | 31440 ft | 380 kts | 167° |
| 2026-04-17 11:15 | 38.33941 | -7.78768 | 31072 ft | 377 kts | 167° |
| 2026-04-17 11:16 | 38.31413 | -7.77909 | 30713 ft | 375 kts | 167° |
| 2026-04-17 11:16 | 38.28893 | -7.77053 | 30349 ft | 373 kts | 167° |
| 2026-04-17 11:16 | 38.26395 | -7.76205 | 29961 ft | 371 kts | 167° |
| 2026-04-17 11:16 | 38.23913 | -7.75363 | 29549 ft | 368 kts | 167° |
| 2026-04-17 11:17 | 38.21450 | -7.74528 | 29147 ft | 365 kts | 167° |
| 2026-04-17 11:17 | 38.19002 | -7.73699 | 28726 ft | 363 kts | 167° |
| 2026-04-17 11:17 | 38.16572 | -7.72876 | 28321 ft | 361 kts | 167° |
| 2026-04-17 11:17 | 38.14156 | -7.72059 | 27922 ft | 358 kts | 167° |
| 2026-04-17 11:18 | 38.12563 | -7.71520 | 27659 ft | 357 kts | 167° |
| 2026-04-17 11:18 | 38.10171 | -7.70712 | 27275 ft | 354 kts | 167° |
| 2026-04-17 11:18 | 38.07794 | -7.69910 | 26898 ft | 352 kts | 167° |
| 2026-04-17 11:18 | 38.05436 | -7.69114 | 26520 ft | 350 kts | 167° |
| 2026-04-17 11:19 | 38.03088 | -7.68323 | 26143 ft | 348 kts | 167° |
| 2026-04-17 11:19 | 38.00753 | -7.67536 | 25780 ft | 346 kts | 167° |
| 2026-04-17 11:19 | 37.98433 | -7.66755 | 25419 ft | 344 kts | 167° |
| 2026-04-17 11:19 | 37.96120 | -7.65977 | 25055 ft | 342 kts | 167° |
| 2026-04-17 11:20 | 37.93827 | -7.65206 | 24710 ft | 341 kts | 167° |
| 2026-04-17 11:20 | 37.91537 | -7.64436 | 24359 ft | 339 kts | 167° |
| 2026-04-17 11:20 | 37.89262 | -7.63672 | 24013 ft | 338 kts | 167° |
| 2026-04-17 11:20 | 37.86996 | -7.62911 | 23681 ft | 336 kts | 167° |
| 2026-04-17 11:21 | 37.84744 | -7.62156 | 23294 ft | 334 kts | 167° |
| 2026-04-17 11:21 | 37.82502 | -7.61405 | 22905 ft | 332 kts | 167° |
| 2026-04-17 11:21 | 37.80269 | -7.60657 | 22532 ft | 331 kts | 167° |
| 2026-04-17 11:21 | 37.78051 | -7.59914 | 22108 ft | 330 kts | 167° |
| 2026-04-17 11:22 | 37.75828 | -7.59170 | 21696 ft | 330 kts | 166° |
| 2026-04-17 11:22 | 37.73615 | -7.58430 | 21341 ft | 328 kts | 166° |
| 2026-04-17 11:22 | 37.71413 | -7.57695 | 21001 ft | 326 kts | 166° |
| 2026-04-17 11:22 | 37.69226 | -7.56964 | 20662 ft | 324 kts | 166° |
| 2026-04-17 11:23 | 37.67061 | -7.56241 | 20330 ft | 322 kts | 166° |
| 2026-04-17 11:23 | 37.64900 | -7.55520 | 20016 ft | 320 kts | 166° |
| 2026-04-17 11:23 | 37.62759 | -7.54807 | 19692 ft | 318 kts | 166° |
| 2026-04-17 11:23 | 37.60624 | -7.54095 | 19370 ft | 316 kts | 166° |
| 2026-04-17 11:24 | 37.58507 | -7.53390 | 19050 ft | 314 kts | 166° |
| 2026-04-17 11:24 | 37.56395 | -7.52688 | 18730 ft | 313 kts | 166° |
| 2026-04-17 11:24 | 37.54297 | -7.51989 | 18417 ft | 312 kts | 165° |
| 2026-04-17 11:24 | 37.52199 | -7.51292 | 18053 ft | 311 kts | 165° |
| 2026-04-17 11:25 | 37.50142 | -7.50609 | 17717 ft | 309 kts | 166° |
| 2026-04-17 11:25 | 37.48044 | -7.49912 | 17385 ft | 307 kts | 166° |
| 2026-04-17 11:25 | 37.46012 | -7.49238 | 17065 ft | 305 kts | 166° |
| 2026-04-17 11:25 | 37.43966 | -7.48559 | 16751 ft | 303 kts | 166° |
| 2026-04-17 11:26 | 37.41935 | -7.47885 | 16442 ft | 301 kts | 166° |
| 2026-04-17 11:26 | 37.39910 | -7.47215 | 16130 ft | 300 kts | 166° |
| 2026-04-17 11:26 | 37.37902 | -7.46549 | 15819 ft | 298 kts | 166° |
| 2026-04-17 11:26 | 37.35903 | -7.45888 | 15517 ft | 296 kts | 166° |
| 2026-04-17 11:27 | 37.33885 | -7.45220 | 15202 ft | 295 kts | 166° |
| 2026-04-17 11:27 | 37.31929 | -7.44574 | 14907 ft | 294 kts | 166° |
| 2026-04-17 11:27 | 37.29952 | -7.43921 | 14599 ft | 293 kts | 166° |
| 2026-04-17 11:27 | 37.27979 | -7.43268 | 14304 ft | 293 kts | 167° |
| 2026-04-17 11:28 | 37.25987 | -7.42611 | 14004 ft | 293 kts | 167° |
| 2026-04-17 11:28 | 37.24014 | -7.41961 | 13667 ft | 293 kts | 166° |
| 2026-04-17 11:28 | 37.22071 | -7.41320 | 13342 ft | 292 kts | 166° |
| 2026-04-17 11:28 | 37.20114 | -7.40675 | 13040 ft | 290 kts | 166° |
| 2026-04-17 11:29 | 37.18163 | -7.40033 | 12744 ft | 289 kts | 166° |
| 2026-04-17 11:29 | 37.16246 | -7.39307 | 12424 ft | 289 kts | 155° |
| 2026-04-17 11:29 | 37.14704 | -7.37742 | 12152 ft | 287 kts | 127° |
| 2026-04-17 11:29 | 37.13888 | -7.35485 | 11868 ft | 287 kts | 102° |
| 2026-04-17 11:30 | 37.13853 | -7.33006 | 11587 ft | 286 kts | 81° |
| 2026-04-17 11:30 | 37.14289 | -7.30583 | 11307 ft | 285 kts | 77° |
| 2026-04-17 11:30 | 37.14774 | -7.28179 | 11010 ft | 284 kts | 76° |
| 2026-04-17 11:30 | 37.15249 | -7.25777 | 10716 ft | 284 kts | 77° |
| 2026-04-17 11:31 | 37.15713 | -7.23370 | 10430 ft | 283 kts | 77° |
| 2026-04-17 11:31 | 37.16165 | -7.20981 | 10233 ft | 279 kts | 77° |
| 2026-04-17 11:31 | 37.16606 | -7.18645 | 10085 ft | 273 kts | 77° |
| 2026-04-17 11:31 | 37.17047 | -7.16330 | 9924 ft | 274 kts | 77° |
| 2026-04-17 11:32 | 37.17495 | -7.13982 | 9761 ft | 280 kts | 77° |
| 2026-04-17 11:32 | 37.17952 | -7.11585 | 9599 ft | 284 kts | 77° |
| 2026-04-17 11:32 | 37.18413 | -7.09166 | 9425 ft | 286 kts | 77° |
| 2026-04-17 11:32 | 37.18875 | -7.06743 | 9257 ft | 286 kts | 77° |
| 2026-04-17 11:33 | 37.19335 | -7.04320 | 9085 ft | 286 kts | 77° |
| 2026-04-17 11:33 | 37.19796 | -7.01890 | 8920 ft | 285 kts | 77° |
| 2026-04-17 11:33 | 37.20251 | -6.99489 | 8762 ft | 281 kts | 77° |
| 2026-04-17 11:33 | 37.20698 | -6.97126 | 8603 ft | 277 kts | 77° |
| 2026-04-17 11:34 | 37.21141 | -6.94787 | 8446 ft | 275 kts | 77° |
| 2026-04-17 11:34 | 37.21581 | -6.92453 | 8291 ft | 274 kts | 78° |
| 2026-04-17 11:34 | 37.22019 | -6.90130 | 8144 ft | 273 kts | 78° |
| 2026-04-17 11:34 | 37.22456 | -6.87809 | 7987 ft | 273 kts | 78° |
| 2026-04-17 11:35 | 37.22891 | -6.85497 | 7835 ft | 272 kts | 78° |
| 2026-04-17 11:35 | 37.23327 | -6.83183 | 7673 ft | 272 kts | 78° |
| 2026-04-17 11:35 | 37.23759 | -6.80882 | 7522 ft | 271 kts | 78° |
| 2026-04-17 11:35 | 37.24189 | -6.78586 | 7371 ft | 270 kts | 78° |
| 2026-04-17 11:36 | 37.24618 | -6.76300 | 7225 ft | 269 kts | 78° |
| 2026-04-17 11:36 | 37.25043 | -6.74017 | 7066 ft | 268 kts | 78° |
| 2026-04-17 11:36 | 37.25464 | -6.71742 | 6910 ft | 267 kts | 79° |
| 2026-04-17 11:36 | 37.25884 | -6.69477 | 6766 ft | 266 kts | 78° |
| 2026-04-17 11:37 | 37.26301 | -6.67223 | 6618 ft | 265 kts | 79° |
| 2026-04-17 11:37 | 37.26719 | -6.64967 | 6426 ft | 266 kts | 79° |
| 2026-04-17 11:37 | 37.27138 | -6.62696 | 6215 ft | 266 kts | 79° |
| 2026-04-17 11:37 | 37.27554 | -6.60442 | 6054 ft | 265 kts | 78° |
| 2026-04-17 11:38 | 37.27969 | -6.58186 | 5891 ft | 264 kts | 79° |
| 2026-04-17 11:38 | 37.28382 | -6.55950 | 5744 ft | 263 kts | 78° |
| 2026-04-17 11:38 | 37.28793 | -6.53721 | 5589 ft | 261 kts | 78° |
| 2026-04-17 11:38 | 37.29199 | -6.51508 | 5440 ft | 260 kts | 79° |
| 2026-04-17 11:39 | 37.29600 | -6.49326 | 5288 ft | 253 kts | 79° |
| 2026-04-17 11:39 | 37.30040 | -6.47192 | 5114 ft | 254 kts | 73° |
| 2026-04-17 11:39 | 37.30649 | -6.45087 | 4947 ft | 259 kts | 71° |
| 2026-04-17 11:39 | 37.31305 | -6.42953 | 4788 ft | 263 kts | 71° |
| 2026-04-17 11:40 | 37.31963 | -6.40815 | 4636 ft | 263 kts | 71° |
| 2026-04-17 11:40 | 37.32616 | -6.38676 | 4483 ft | 262 kts | 71° |
| 2026-04-17 11:40 | 37.33258 | -6.36541 | 4326 ft | 261 kts | 72° |
| 2026-04-17 11:40 | 37.33887 | -6.34428 | 4186 ft | 264 kts | 71° |
| 2026-04-17 11:41 | 37.34532 | -6.32253 | 4030 ft | 266 kts | 72° |
| 2026-04-17 11:41 | 37.35170 | -6.30095 | 3871 ft | 260 kts | 72° |
| 2026-04-17 11:41 | 37.35794 | -6.27981 | 3714 ft | 256 kts | 72° |
| 2026-04-17 11:41 | 37.36408 | -6.25893 | 3588 ft | 255 kts | 72° |
| 2026-04-17 11:42 | 37.37024 | -6.23796 | 3445 ft | 256 kts | 72° |
| 2026-04-17 11:42 | 37.37652 | -6.21699 | 3264 ft | 255 kts | 72° |
| 2026-04-17 11:42 | 37.38248 | -6.19629 | 3125 ft | 250 kts | 72° |
| 2026-04-17 11:42 | 37.38841 | -6.17588 | 2967 ft | 246 kts | 72° |
| 2026-04-17 11:43 | 37.39425 | -6.15587 | 2817 ft | 242 kts | 71° |
| 2026-04-17 11:43 | 37.39997 | -6.13631 | 2705 ft | 236 kts | 71° |
| 2026-04-17 11:43 | 37.40561 | -6.11703 | 2550 ft | 232 kts | 71° |
| 2026-04-17 11:43 | 37.41109 | -6.09818 | 2435 ft | 226 kts | 71° |
| 2026-04-17 11:44 | 37.41613 | -6.07991 | 2318 ft | 215 kts | 77° |
| 2026-04-17 11:44 | 37.41766 | -6.06174 | 2205 ft | 203 kts | 89° |
| 2026-04-17 11:44 | 37.41762 | -6.04433 | 2079 ft | 197 kts | 90° |
| 2026-04-17 11:44 | 37.41759 | -6.02740 | 1867 ft | 189 kts | 90° |
| 2026-04-17 11:45 | 37.41759 | -6.01138 | 1640 ft | 179 kts | 90° |
| 2026-04-17 11:45 | 37.41762 | -5.99624 | 1404 ft | 167 kts | 90° |
| 2026-04-17 11:45 | 37.41766 | -5.98228 | 1195 ft | 151 kts | 90° |
| 2026-04-17 11:45 | 37.41769 | -5.96944 | 991 ft | 142 kts | 89° |
| 2026-04-17 11:46 | 37.41764 | -5.95650 | 842 ft | 153 kts | 91° |
| 2026-04-17 11:46 | 37.41757 | -5.94298 | 661 ft | 155 kts | 88° |
| 2026-04-17 11:46 | 37.41788 | -5.92949 | 451 ft | 154 kts | 88° |
| 2026-04-17 11:46 | 37.41787 | -5.91622 | 217 ft | 145 kts | 91° |
| 2026-04-17 11:47 | 37.41788 | -5.90393 | 98 ft | 135 kts | 88° |
| 2026-04-17 11:47 | 37.41795 | -5.89415 | 99 ft | 72 kts | 90° |
| 2026-04-17 11:47 | 37.41842 | -5.89261 | 99 ft | 11 kts | 354° |
| 2026-04-17 11:47 | 37.41925 | -5.89320 | 98 ft | 17 kts | 328° |
| 2026-04-17 11:48 | 37.42033 | -5.89420 | 97 ft | 20 kts | 314° |
| 2026-04-17 11:48 | 37.42147 | -5.89566 | 95 ft | 27 kts | 315° |
| 2026-04-17 11:48 | 37.42257 | -5.89693 | 93 ft | 20 kts | 347° |
| 2026-04-17 11:48 | 37.42303 | -5.89657 | 93 ft | 6 kts | 58° |
| 2026-04-17 11:49 | 37.42304 | -5.89653 | 93 ft | 0 kts | 74° |